Terminal Aerodrome Forecast
Issued by NWS

Home | Current Version | Previous Version | Graphics & Text | Print | Product List | Glossary On
Versions: 1 2 3 4 5 6 7 8 9 10 11 12 13 14 15 16
856
FTUS43 KIWX 271120
TAFSBN
TAF
KSBN 271120Z 2712/2812 20007KT P6SM BKN250
     FM271500 21012KT P6SM SCT035 BKN100
     FM271700 21012G18KT P6SM VCSH SCT050 BKN150
     FM280300 18008KT P6SM BKN100=

USA.gov is the U.S. government's official web portal to all federal, state and local government web resources and services.